sensor_id;sensor_type;location;lat;lon;timestamp;pressure;altitude;pressure_sealevel;temperature
19644;BMP180;9970;-36.854;174.870;2022-11-20T00:01:54;100053.00;;;19.40
19644;BMP180;9970;-36.854;174.870;2022-11-20T00:04:27;100056.00;;;19.30
19644;BMP180;9970;-36.854;174.870;2022-11-20T00:07:00;100062.00;;;19.30
19644;BMP180;9970;-36.854;174.870;2022-11-20T00:09:33;100056.00;;;19.30
19644;BMP180;9970;-36.854;174.870;2022-11-20T00:12:06;100049.00;;;19.20
19644;BMP180;9970;-36.854;174.870;2022-11-20T00:14:39;100051.00;;;19.10
19644;BMP180;9970;-36.854;174.870;2022-11-20T00:17:13;100046.00;;;19.10
19644;BMP180;9970;-36.854;174.870;2022-11-20T00:19:46;100059.00;;;19.00
19644;BMP180;9970;-36.854;174.870;2022-11-20T00:22:18;100032.00;;;18.90
19644;BMP180;9970;-36.854;174.870;2022-11-20T00:24:51;100031.00;;;18.80
19644;BMP180;9970;-36.854;174.870;2022-11-20T00:27:24;100024.00;;;18.70
19644;BMP180;9970;-36.854;174.870;2022-11-20T00:29:57;100028.00;;;18.70
19644;BMP180;9970;-36.854;174.870;2022-11-20T00:32:30;100025.00;;;18.70
19644;BMP180;9970;-36.854;174.870;2022-11-20T00:35:03;100026.00;;;18.60
19644;BMP180;9970;-36.854;174.870;2022-11-20T00:37:36;100028.00;;;18.60
19644;BMP180;9970;-36.854;174.870;2022-11-20T00:40:11;100043.00;;;18.60
19644;BMP180;9970;-36.854;174.870;2022-11-20T00:42:44;100046.00;;;18.50
19644;BMP180;9970;-36.854;174.870;2022-11-20T00:45:17;100047.00;;;18.50
19644;BMP180;9970;-36.854;174.870;2022-11-20T00:47:49;100047.00;;;18.40
19644;BMP180;9970;-36.854;174.870;2022-11-20T00:50:23;100039.00;;;18.40
19644;BMP180;9970;-36.854;174.870;2022-11-20T00:52:56;100041.00;;;18.30
19644;BMP180;9970;-36.854;174.870;2022-11-20T00:55:29;100048.00;;;18.30
19644;BMP180;9970;-36.854;174.870;2022-11-20T00:58:02;100031.00;;;18.30
19644;BMP180;9970;-36.854;174.870;2022-11-20T01:00:37;100036.00;;;18.30
19644;BMP180;9970;-36.854;174.870;2022-11-20T01:03:10;100025.00;;;18.30
19644;BMP180;9970;-36.854;174.870;2022-11-20T01:05:43;100014.00;;;18.30
19644;BMP180;9970;-36.854;174.870;2022-11-20T01:08:16;100021.00;;;18.30
19644;BMP180;9970;-36.854;174.870;2022-11-20T01:10:49;100025.00;;;18.20
19644;BMP180;9970;-36.854;174.870;2022-11-20T01:13:22;100015.00;;;18.20
19644;BMP180;9970;-36.854;174.870;2022-11-20T01:16:13;100016.00;;;18.20
19644;BMP180;9970;-36.854;174.870;2022-11-20T01:18:48;100022.00;;;18.20
19644;BMP180;9970;-36.854;174.870;2022-11-20T01:21:23;100015.00;;;18.20
19644;BMP180;9970;-36.854;174.870;2022-11-20T01:23:57;100022.00;;;18.20
19644;BMP180;9970;-36.854;174.870;2022-11-20T01:26:32;100018.00;;;18.20
19644;BMP180;9970;-36.854;174.870;2022-11-20T01:29:13;100015.00;;;18.20
19644;BMP180;9970;-36.854;174.870;2022-11-20T01:31:40;100011.00;;;18.20
19644;BMP180;9970;-36.854;174.870;2022-11-20T01:34:14;100016.00;;;18.20
19644;BMP180;9970;-36.854;174.870;2022-11-20T01:36:47;100012.00;;;18.20
19644;BMP180;9970;-36.854;174.870;2022-11-20T01:39:23;100018.00;;;18.20
19644;BMP180;9970;-36.854;174.870;2022-11-20T01:41:56;100028.00;;;18.20
19644;BMP180;9970;-36.854;174.870;2022-11-20T01:44:57;100022.00;;;18.20
19644;BMP180;9970;-36.854;174.870;2022-11-20T01:47:38;100016.00;;;18.20
19644;BMP180;9970;-36.854;174.870;2022-11-20T01:50:19;100011.00;;;18.20
19644;BMP180;9970;-36.854;174.870;2022-11-20T01:52:57;100008.00;;;18.20
19644;BMP180;9970;-36.854;174.870;2022-11-20T01:55:33;100007.00;;;18.20
19644;BMP180;9970;-36.854;174.870;2022-11-20T01:58:06;99991.00;;;18.20
19644;BMP180;9970;-36.854;174.870;2022-11-20T02:00:41;99988.00;;;18.30
19644;BMP180;9970;-36.854;174.870;2022-11-20T02:03:20;99990.00;;;18.40
19644;BMP180;9970;-36.854;174.870;2022-11-20T02:08:36;99986.00;;;18.50
19644;BMP180;9970;-36.854;174.870;2022-11-20T02:11:10;99974.00;;;18.50
19644;BMP180;9970;-36.854;174.870;2022-11-20T02:13:43;99977.00;;;18.50
19644;BMP180;9970;-36.854;174.870;2022-11-20T02:16:24;99972.00;;;18.60
19644;BMP180;9970;-36.854;174.870;2022-11-20T02:18:59;99973.00;;;18.50
19644;BMP180;9970;-36.854;174.870;2022-11-20T02:21:37;99982.00;;;18.60
19644;BMP180;9970;-36.854;174.870;2022-11-20T02:26:56;99984.00;;;18.60
19644;BMP180;9970;-36.854;174.870;2022-11-20T02:29:36;99979.00;;;18.50
19644;BMP180;9970;-36.854;174.870;2022-11-20T02:32:17;99981.00;;;18.50
19644;BMP180;9970;-36.854;174.870;2022-11-20T02:34:42;99980.00;;;18.40
19644;BMP180;9970;-36.854;174.870;2022-11-20T02:37:15;99980.00;;;18.40
19644;BMP180;9970;-36.854;174.870;2022-11-20T02:39:50;99981.00;;;18.40
19644;BMP180;9970;-36.854;174.870;2022-11-20T02:42:23;99975.00;;;18.40
19644;BMP180;9970;-36.854;174.870;2022-11-20T02:44:56;99969.00;;;18.40
19644;BMP180;9970;-36.854;174.870;2022-11-20T02:47:29;99979.00;;;18.40
19644;BMP180;9970;-36.854;174.870;2022-11-20T02:50:04;99976.00;;;18.30
19644;BMP180;9970;-36.854;174.870;2022-11-20T02:52:37;99975.00;;;18.30
19644;BMP180;9970;-36.854;174.870;2022-11-20T02:55:10;99974.00;;;18.30
19644;BMP180;9970;-36.854;174.870;2022-11-20T02:57:43;99966.00;;;18.30
19644;BMP180;9970;-36.854;174.870;2022-11-20T03:00:16;99972.00;;;18.30
19644;BMP180;9970;-36.854;174.870;2022-11-20T03:02:49;99966.00;;;18.30
19644;BMP180;9970;-36.854;174.870;2022-11-20T03:05:22;99965.00;;;18.30
19644;BMP180;9970;-36.854;174.870;2022-11-20T03:07:55;99960.00;;;18.30
19644;BMP180;9970;-36.854;174.870;2022-11-20T03:10:29;99968.00;;;18.30
19644;BMP180;9970;-36.854;174.870;2022-11-20T03:13:02;99967.00;;;18.30
19644;BMP180;9970;-36.854;174.870;2022-11-20T03:15:36;99984.00;;;18.30
19644;BMP180;9970;-36.854;174.870;2022-11-20T03:18:09;99976.00;;;18.30
19644;BMP180;9970;-36.854;174.870;2022-11-20T03:20:42;99964.00;;;18.30
19644;BMP180;9970;-36.854;174.870;2022-11-20T03:23:15;99960.00;;;18.30
19644;BMP180;9970;-36.854;174.870;2022-11-20T03:25:48;99979.00;;;18.30
19644;BMP180;9970;-36.854;174.870;2022-11-20T03:28:21;99983.00;;;18.20
19644;BMP180;9970;-36.854;174.870;2022-11-20T03:30:54;99985.00;;;18.20
19644;BMP180;9970;-36.854;174.870;2022-11-20T03:33:27;99987.00;;;18.10
19644;BMP180;9970;-36.854;174.870;2022-11-20T03:36:05;99977.00;;;18.10
19644;BMP180;9970;-36.854;174.870;2022-11-20T03:38:38;99969.00;;;18.10
19644;BMP180;9970;-36.854;174.870;2022-11-20T03:41:13;99969.00;;;18.10
19644;BMP180;9970;-36.854;174.870;2022-11-20T03:43:50;99973.00;;;18.00
19644;BMP180;9970;-36.854;174.870;2022-11-20T03:46:24;99974.00;;;18.00
19644;BMP180;9970;-36.854;174.870;2022-11-20T03:48:57;99969.00;;;18.00
19644;BMP180;9970;-36.854;174.870;2022-11-20T03:51:34;99968.00;;;18.00
19644;BMP180;9970;-36.854;174.870;2022-11-20T03:54:09;99969.00;;;18.00
19644;BMP180;9970;-36.854;174.870;2022-11-20T03:56:42;99962.00;;;18.00
19644;BMP180;9970;-36.854;174.870;2022-11-20T03:59:15;99966.00;;;18.00
19644;BMP180;9970;-36.854;174.870;2022-11-20T04:01:49;99954.00;;;18.00
19644;BMP180;9970;-36.854;174.870;2022-11-20T04:04:22;99964.00;;;18.00
19644;BMP180;9970;-36.854;174.870;2022-11-20T04:06:55;99957.00;;;18.10
19644;BMP180;9970;-36.854;174.870;2022-11-20T04:09:28;99938.00;;;18.10
19644;BMP180;9970;-36.854;174.870;2022-11-20T04:12:01;99957.00;;;18.10
19644;BMP180;9970;-36.854;174.870;2022-11-20T04:14:34;99944.00;;;18.10
19644;BMP180;9970;-36.854;174.870;2022-11-20T04:17:07;99952.00;;;18.10
19644;BMP180;9970;-36.854;174.870;2022-11-20T04:19:40;99955.00;;;18.20
19644;BMP180;9970;-36.854;174.870;2022-11-20T04:22:13;99958.00;;;18.20
19644;BMP180;9970;-36.854;174.870;2022-11-20T04:24:46;99942.00;;;18.20
19644;BMP180;9970;-36.854;174.870;2022-11-20T04:27:19;99950.00;;;18.20
19644;BMP180;9970;-36.854;174.870;2022-11-20T04:29:52;99947.00;;;18.20
19644;BMP180;9970;-36.854;174.870;2022-11-20T04:32:25;99968.00;;;18.20
19644;BMP180;9970;-36.854;174.870;2022-11-20T04:34:58;99964.00;;;18.20
19644;BMP180;9970;-36.854;174.870;2022-11-20T04:37:31;99956.00;;;18.10
19644;BMP180;9970;-36.854;174.870;2022-11-20T04:40:05;99959.00;;;18.10
19644;BMP180;9970;-36.854;174.870;2022-11-20T04:42:38;99961.00;;;17.90
19644;BMP180;9970;-36.854;174.870;2022-11-20T04:45:11;99943.00;;;17.90
19644;BMP180;9970;-36.854;174.870;2022-11-20T04:47:44;99953.00;;;17.90
19644;BMP180;9970;-36.854;174.870;2022-11-20T04:50:17;99952.00;;;17.80
19644;BMP180;9970;-36.854;174.870;2022-11-20T04:52:50;99956.00;;;17.80
19644;BMP180;9970;-36.854;174.870;2022-11-20T04:55:24;99951.00;;;17.90
19644;BMP180;9970;-36.854;174.870;2022-11-20T04:57:57;99949.00;;;17.90
19644;BMP180;9970;-36.854;174.870;2022-11-20T05:00:30;99936.00;;;17.90
19644;BMP180;9970;-36.854;174.870;2022-11-20T05:03:03;99939.00;;;18.00
19644;BMP180;9970;-36.854;174.870;2022-11-20T05:05:37;99938.00;;;18.00
19644;BMP180;9970;-36.854;174.870;2022-11-20T05:08:10;99938.00;;;18.00
19644;BMP180;9970;-36.854;174.870;2022-11-20T05:10:43;99929.00;;;18.00
19644;BMP180;9970;-36.854;174.870;2022-11-20T05:13:16;99929.00;;;18.00
19644;BMP180;9970;-36.854;174.870;2022-11-20T05:15:49;99926.00;;;18.00
19644;BMP180;9970;-36.854;174.870;2022-11-20T05:18:22;99932.00;;;18.00
19644;BMP180;9970;-36.854;174.870;2022-11-20T05:20:58;99935.00;;;18.00
19644;BMP180;9970;-36.854;174.870;2022-11-20T05:23:32;99935.00;;;18.00
19644;BMP180;9970;-36.854;174.870;2022-11-20T05:26:06;99938.00;;;18.00
19644;BMP180;9970;-36.854;174.870;2022-11-20T05:28:39;99928.00;;;18.00
19644;BMP180;9970;-36.854;174.870;2022-11-20T05:31:15;99947.00;;;18.00
19644;BMP180;9970;-36.854;174.870;2022-11-20T05:33:48;99950.00;;;18.00
19644;BMP180;9970;-36.854;174.870;2022-11-20T05:36:22;99953.00;;;18.00
19644;BMP180;9970;-36.854;174.870;2022-11-20T05:38:55;99949.00;;;18.10
19644;BMP180;9970;-36.854;174.870;2022-11-20T05:41:29;99962.00;;;18.10
19644;BMP180;9970;-36.854;174.870;2022-11-20T05:44:02;99970.00;;;18.10
19644;BMP180;9970;-36.854;174.870;2022-11-20T05:46:35;99965.00;;;18.10
19644;BMP180;9970;-36.854;174.870;2022-11-20T05:49:09;99969.00;;;18.00
19644;BMP180;9970;-36.854;174.870;2022-11-20T05:51:41;99972.00;;;18.00
19644;BMP180;9970;-36.854;174.870;2022-11-20T05:54:14;99956.00;;;18.00
19644;BMP180;9970;-36.854;174.870;2022-11-20T05:56:52;99973.00;;;18.10
19644;BMP180;9970;-36.854;174.870;2022-11-20T05:59:25;99969.00;;;18.00
19644;BMP180;9970;-36.854;174.870;2022-11-20T06:01:58;99975.00;;;18.10
19644;BMP180;9970;-36.854;174.870;2022-11-20T06:04:31;99964.00;;;18.10
19644;BMP180;9970;-36.854;174.870;2022-11-20T06:07:05;99976.00;;;18.10
19644;BMP180;9970;-36.854;174.870;2022-11-20T06:09:38;99984.00;;;18.10
19644;BMP180;9970;-36.854;174.870;2022-11-20T06:12:11;99993.00;;;18.10
19644;BMP180;9970;-36.854;174.870;2022-11-20T06:14:44;99984.00;;;18.10
19644;BMP180;9970;-36.854;174.870;2022-11-20T06:17:17;99998.00;;;18.10
19644;BMP180;9970;-36.854;174.870;2022-11-20T06:19:50;100001.00;;;18.10
19644;BMP180;9970;-36.854;174.870;2022-11-20T06:22:28;100000.00;;;18.10
19644;BMP180;9970;-36.854;174.870;2022-11-20T06:25:04;100002.00;;;18.10
19644;BMP180;9970;-36.854;174.870;2022-11-20T06:27:37;100008.00;;;18.10
19644;BMP180;9970;-36.854;174.870;2022-11-20T06:30:11;99997.00;;;18.10
19644;BMP180;9970;-36.854;174.870;2022-11-20T06:32:44;100000.00;;;18.10
19644;BMP180;9970;-36.854;174.870;2022-11-20T06:35:17;100000.00;;;18.10
19644;BMP180;9970;-36.854;174.870;2022-11-20T06:37:50;100009.00;;;18.10
19644;BMP180;9970;-36.854;174.870;2022-11-20T06:40:23;100005.00;;;18.10
19644;BMP180;9970;-36.854;174.870;2022-11-20T06:42:56;100009.00;;;18.00
19644;BMP180;9970;-36.854;174.870;2022-11-20T06:45:29;100012.00;;;18.00
19644;BMP180;9970;-36.854;174.870;2022-11-20T06:48:03;100027.00;;;18.00
19644;BMP180;9970;-36.854;174.870;2022-11-20T06:50:38;100027.00;;;18.00
19644;BMP180;9970;-36.854;174.870;2022-11-20T06:53:12;100031.00;;;18.00
19644;BMP180;9970;-36.854;174.870;2022-11-20T06:55:46;100032.00;;;18.00
19644;BMP180;9970;-36.854;174.870;2022-11-20T06:58:19;100036.00;;;17.90
19644;BMP180;9970;-36.854;174.870;2022-11-20T07:00:53;100034.00;;;17.90
19644;BMP180;9970;-36.854;174.870;2022-11-20T07:03:26;100033.00;;;17.90
19644;BMP180;9970;-36.854;174.870;2022-11-20T07:06:00;100030.00;;;17.90
19644;BMP180;9970;-36.854;174.870;2022-11-20T07:08:33;100035.00;;;17.90
19644;BMP180;9970;-36.854;174.870;2022-11-20T07:11:07;100049.00;;;17.80
19644;BMP180;9970;-36.854;174.870;2022-11-20T07:13:40;100061.00;;;17.80
19644;BMP180;9970;-36.854;174.870;2022-11-20T07:16:13;100065.00;;;17.80
19644;BMP180;9970;-36.854;174.870;2022-11-20T07:18:46;100060.00;;;17.80
19644;BMP180;9970;-36.854;174.870;2022-11-20T07:21:19;100040.00;;;17.80
19644;BMP180;9970;-36.854;174.870;2022-11-20T07:23:52;100051.00;;;17.80
19644;BMP180;9970;-36.854;174.870;2022-11-20T07:26:26;100051.00;;;17.80
19644;BMP180;9970;-36.854;174.870;2022-11-20T07:28:59;100055.00;;;17.80
19644;BMP180;9970;-36.854;174.870;2022-11-20T07:31:32;100059.00;;;17.80
19644;BMP180;9970;-36.854;174.870;2022-11-20T07:34:05;100059.00;;;17.80
19644;BMP180;9970;-36.854;174.870;2022-11-20T07:36:38;100059.00;;;17.70
19644;BMP180;9970;-36.854;174.870;2022-11-20T07:39:11;100079.00;;;17.70
19644;BMP180;9970;-36.854;174.870;2022-11-20T07:41:44;100077.00;;;17.70
19644;BMP180;9970;-36.854;174.870;2022-11-20T07:44:17;100073.00;;;17.70
19644;BMP180;9970;-36.854;174.870;2022-11-20T07:46:50;100075.00;;;17.70
19644;BMP180;9970;-36.854;174.870;2022-11-20T07:49:23;100081.00;;;17.60
19644;BMP180;9970;-36.854;174.870;2022-11-20T07:51:57;100085.00;;;17.60
19644;BMP180;9970;-36.854;174.870;2022-11-20T07:54:31;100089.00;;;17.60
19644;BMP180;9970;-36.854;174.870;2022-11-20T07:57:04;100095.00;;;17.60
19644;BMP180;9970;-36.854;174.870;2022-11-20T07:59:37;100096.00;;;17.60
19644;BMP180;9970;-36.854;174.870;2022-11-20T08:02:11;100102.00;;;17.60
19644;BMP180;9970;-36.854;174.870;2022-11-20T08:04:44;100109.00;;;17.60
19644;BMP180;9970;-36.854;174.870;2022-11-20T08:07:17;100104.00;;;17.60
19644;BMP180;9970;-36.854;174.870;2022-11-20T08:09:51;100122.00;;;17.70
19644;BMP180;9970;-36.854;174.870;2022-11-20T08:12:24;100121.00;;;17.70
19644;BMP180;9970;-36.854;174.870;2022-11-20T08:15:14;100135.00;;;17.70
19644;BMP180;9970;-36.854;174.870;2022-11-20T08:17:47;100140.00;;;17.70
19644;BMP180;9970;-36.854;174.870;2022-11-20T08:20:21;100138.00;;;17.70
19644;BMP180;9970;-36.854;174.870;2022-11-20T08:22:59;100135.00;;;17.70
19644;BMP180;9970;-36.854;174.870;2022-11-20T08:25:37;100147.00;;;17.70
19644;BMP180;9970;-36.854;174.870;2022-11-20T08:28:07;100151.00;;;17.70
19644;BMP180;9970;-36.854;174.870;2022-11-20T08:30:42;100151.00;;;17.70
19644;BMP180;9970;-36.854;174.870;2022-11-20T08:33:15;100150.00;;;17.70
19644;BMP180;9970;-36.854;174.870;2022-11-20T08:35:48;100157.00;;;17.70
19644;BMP180;9970;-36.854;174.870;2022-11-20T08:38:21;100166.00;;;17.70
19644;BMP180;9970;-36.854;174.870;2022-11-20T08:41:01;100167.00;;;17.70
19644;BMP180;9970;-36.854;174.870;2022-11-20T08:43:56;100168.00;;;17.70
19644;BMP180;9970;-36.854;174.870;2022-11-20T08:46:40;100176.00;;;17.70
19644;BMP180;9970;-36.854;174.870;2022-11-20T08:49:15;100182.00;;;17.70
19644;BMP180;9970;-36.854;174.870;2022-11-20T08:51:49;100195.00;;;17.70
19644;BMP180;9970;-36.854;174.870;2022-11-20T08:54:23;100186.00;;;17.70
19644;BMP180;9970;-36.854;174.870;2022-11-20T08:56:57;100179.00;;;17.70
19644;BMP180;9970;-36.854;174.870;2022-11-20T08:59:30;100185.00;;;17.80
19644;BMP180;9970;-36.854;174.870;2022-11-20T09:02:05;100176.00;;;17.80
19644;BMP180;9970;-36.854;174.870;2022-11-20T09:04:38;100179.00;;;17.80
19644;BMP180;9970;-36.854;174.870;2022-11-20T09:07:11;100191.00;;;17.80
19644;BMP180;9970;-36.854;174.870;2022-11-20T09:09:44;100199.00;;;17.80
19644;BMP180;9970;-36.854;174.870;2022-11-20T09:12:18;100200.00;;;17.80
19644;BMP180;9970;-36.854;174.870;2022-11-20T09:14:51;100197.00;;;17.80
19644;BMP180;9970;-36.854;174.870;2022-11-20T09:17:24;100198.00;;;17.80
19644;BMP180;9970;-36.854;174.870;2022-11-20T09:19:57;100192.00;;;17.80
19644;BMP180;9970;-36.854;174.870;2022-11-20T09:22:30;100193.00;;;17.80
19644;BMP180;9970;-36.854;174.870;2022-11-20T09:25:04;100198.00;;;17.80
19644;BMP180;9970;-36.854;174.870;2022-11-20T09:27:37;100195.00;;;17.80
19644;BMP180;9970;-36.854;174.870;2022-11-20T09:30:15;100197.00;;;17.80
19644;BMP180;9970;-36.854;174.870;2022-11-20T09:32:48;100197.00;;;17.80
19644;BMP180;9970;-36.854;174.870;2022-11-20T09:35:21;100210.00;;;17.80
19644;BMP180;9970;-36.854;174.870;2022-11-20T09:37:54;100204.00;;;17.80
19644;BMP180;9970;-36.854;174.870;2022-11-20T09:40:28;100217.00;;;17.80
19644;BMP180;9970;-36.854;174.870;2022-11-20T09:43:19;100212.00;;;17.80
19644;BMP180;9970;-36.854;174.870;2022-11-20T09:49:03;100208.00;;;17.70
19644;BMP180;9970;-36.854;174.870;2022-11-20T09:54:26;100203.00;;;17.70
19644;BMP180;9970;-36.854;174.870;2022-11-20T09:57:09;100209.00;;;17.60
19644;BMP180;9970;-36.854;174.870;2022-11-20T09:59:51;100206.00;;;17.70
19644;BMP180;9970;-36.854;174.870;2022-11-20T10:10:33;100208.00;;;17.50
19644;BMP180;9970;-36.854;174.870;2022-11-20T10:13:27;100204.00;;;17.50
19644;BMP180;9970;-36.854;174.870;2022-11-20T10:16:18;100198.00;;;17.50
19644;BMP180;9970;-36.854;174.870;2022-11-20T10:19:07;100202.00;;;17.50
19644;BMP180;9970;-36.854;174.870;2022-11-20T10:24:35;100204.00;;;17.50
19644;BMP180;9970;-36.854;174.870;2022-11-20T10:27:30;100200.00;;;17.50
19644;BMP180;9970;-36.854;174.870;2022-11-20T10:30:14;100200.00;;;17.50
19644;BMP180;9970;-36.854;174.870;2022-11-20T10:32:52;100193.00;;;17.50
19644;BMP180;9970;-36.854;174.870;2022-11-20T10:35:28;100199.00;;;17.50
19644;BMP180;9970;-36.854;174.870;2022-11-20T10:38:02;100195.00;;;17.50
19644;BMP180;9970;-36.854;174.870;2022-11-20T10:40:45;100195.00;;;17.50
19644;BMP180;9970;-36.854;174.870;2022-11-20T10:43:21;100194.00;;;17.50
19644;BMP180;9970;-36.854;174.870;2022-11-20T10:46:01;100202.00;;;17.50
19644;BMP180;9970;-36.854;174.870;2022-11-20T10:48:32;100200.00;;;17.50
19644;BMP180;9970;-36.854;174.870;2022-11-20T10:54:17;100206.00;;;17.50
19644;BMP180;9970;-36.854;174.870;2022-11-20T10:56:50;100203.00;;;17.50
19644;BMP180;9970;-36.854;174.870;2022-11-20T11:01:58;100191.00;;;17.50
19644;BMP180;9970;-36.854;174.870;2022-11-20T11:04:46;100190.00;;;17.50
19644;BMP180;9970;-36.854;174.870;2022-11-20T11:07:17;100185.00;;;17.50
19644;BMP180;9970;-36.854;174.870;2022-11-20T11:09:56;100181.00;;;17.50
19644;BMP180;9970;-36.854;174.870;2022-11-20T11:12:30;100191.00;;;17.50
19644;BMP180;9970;-36.854;174.870;2022-11-20T11:15:03;100192.00;;;17.50
19644;BMP180;9970;-36.854;174.870;2022-11-20T11:17:36;100188.00;;;17.50
19644;BMP180;9970;-36.854;174.870;2022-11-20T11:20:20;100179.00;;;17.50
19644;BMP180;9970;-36.854;174.870;2022-11-20T11:22:57;100187.00;;;17.50
19644;BMP180;9970;-36.854;174.870;2022-11-20T11:25:32;100183.00;;;17.50
19644;BMP180;9970;-36.854;174.870;2022-11-20T11:28:20;100191.00;;;17.50
19644;BMP180;9970;-36.854;174.870;2022-11-20T11:30:53;100200.00;;;17.50
19644;BMP180;9970;-36.854;174.870;2022-11-20T11:33:29;100184.00;;;17.50
19644;BMP180;9970;-36.854;174.870;2022-11-20T11:36:03;100185.00;;;17.50
19644;BMP180;9970;-36.854;174.870;2022-11-20T11:38:42;100188.00;;;17.50
19644;BMP180;9970;-36.854;174.870;2022-11-20T11:41:27;100184.00;;;17.50
19644;BMP180;9970;-36.854;174.870;2022-11-20T11:58:17;100183.00;;;17.50
19644;BMP180;9970;-36.854;174.870;2022-11-20T12:01:07;100186.00;;;17.50
19644;BMP180;9970;-36.854;174.870;2022-11-20T12:03:40;100187.00;;;17.50
19644;BMP180;9970;-36.854;174.870;2022-11-20T12:06:18;100183.00;;;17.50
19644;BMP180;9970;-36.854;174.870;2022-11-20T12:11:45;100176.00;;;17.50
19644;BMP180;9970;-36.854;174.870;2022-11-20T12:14:26;100176.00;;;17.50
19644;BMP180;9970;-36.854;174.870;2022-11-20T12:16:54;100169.00;;;17.50
19644;BMP180;9970;-36.854;174.870;2022-11-20T12:19:34;100168.00;;;17.50
19644;BMP180;9970;-36.854;174.870;2022-11-20T12:30:32;100164.00;;;17.50
19644;BMP180;9970;-36.854;174.870;2022-11-20T12:33:32;100160.00;;;17.50
19644;BMP180;9970;-36.854;174.870;2022-11-20T12:38:58;100161.00;;;17.50
19644;BMP180;9970;-36.854;174.870;2022-11-20T12:44:58;100165.00;;;17.40
19644;BMP180;9970;-36.854;174.870;2022-11-20T12:48:18;100160.00;;;17.40
19644;BMP180;9970;-36.854;174.870;2022-11-20T12:53:45;100144.00;;;17.40
19644;BMP180;9970;-36.854;174.870;2022-11-20T13:02:05;100147.00;;;17.40
19644;BMP180;9970;-36.854;174.870;2022-11-20T13:07:14;100132.00;;;17.40
19644;BMP180;9970;-36.854;174.870;2022-11-20T13:09:49;100133.00;;;17.40
19644;BMP180;9970;-36.854;174.870;2022-11-20T13:12:47;100128.00;;;17.40
19644;BMP180;9970;-36.854;174.870;2022-11-20T13:18:13;100133.00;;;17.40
19644;BMP180;9970;-36.854;174.870;2022-11-20T13:20:45;100127.00;;;17.40
19644;BMP180;9970;-36.854;174.870;2022-11-20T13:23:24;100138.00;;;17.40
19644;BMP180;9970;-36.854;174.870;2022-11-20T13:26:20;100129.00;;;17.40
19644;BMP180;9970;-36.854;174.870;2022-11-20T13:29:11;100135.00;;;17.30
19644;BMP180;9970;-36.854;174.870;2022-11-20T13:31:46;100126.00;;;17.30
19644;BMP180;9970;-36.854;174.870;2022-11-20T13:34:24;100136.00;;;17.30
19644;BMP180;9970;-36.854;174.870;2022-11-20T13:36:58;100132.00;;;17.30
19644;BMP180;9970;-36.854;174.870;2022-11-20T13:39:38;100136.00;;;17.30
19644;BMP180;9970;-36.854;174.870;2022-11-20T13:45:00;100136.00;;;17.30
19644;BMP180;9970;-36.854;174.870;2022-11-20T13:47:30;100140.00;;;17.30
19644;BMP180;9970;-36.854;174.870;2022-11-20T13:50:04;100139.00;;;17.30
19644;BMP180;9970;-36.854;174.870;2022-11-20T13:55:43;100135.00;;;17.20
19644;BMP180;9970;-36.854;174.870;2022-11-20T14:01:29;100132.00;;;17.20
19644;BMP180;9970;-36.854;174.870;2022-11-20T14:04:11;100137.00;;;17.20
19644;BMP180;9970;-36.854;174.870;2022-11-20T14:06:45;100138.00;;;17.20
19644;BMP180;9970;-36.854;174.870;2022-11-20T14:09:32;100143.00;;;17.20
19644;BMP180;9970;-36.854;174.870;2022-11-20T14:12:16;100143.00;;;17.20
19644;BMP180;9970;-36.854;174.870;2022-11-20T14:14:47;100150.00;;;17.20
19644;BMP180;9970;-36.854;174.870;2022-11-20T14:17:30;100149.00;;;17.20
19644;BMP180;9970;-36.854;174.870;2022-11-20T14:20:04;100149.00;;;17.20
19644;BMP180;9970;-36.854;174.870;2022-11-20T14:22:37;100140.00;;;17.20
19644;BMP180;9970;-36.854;174.870;2022-11-20T14:28:01;100147.00;;;17.20
19644;BMP180;9970;-36.854;174.870;2022-11-20T14:30:37;100150.00;;;17.20
19644;BMP180;9970;-36.854;174.870;2022-11-20T14:33:05;100154.00;;;17.20
19644;BMP180;9970;-36.854;174.870;2022-11-20T14:35:45;100149.00;;;17.20
19644;BMP180;9970;-36.854;174.870;2022-11-20T14:38:29;100150.00;;;17.20
19644;BMP180;9970;-36.854;174.870;2022-11-20T14:41:14;100153.00;;;17.20
19644;BMP180;9970;-36.854;174.870;2022-11-20T14:43:45;100158.00;;;17.20
19644;BMP180;9970;-36.854;174.870;2022-11-20T14:46:18;100146.00;;;17.10
19644;BMP180;9970;-36.854;174.870;2022-11-20T14:48:55;100150.00;;;17.10
19644;BMP180;9970;-36.854;174.870;2022-11-20T14:51:35;100153.00;;;17.10
19644;BMP180;9970;-36.854;174.870;2022-11-20T14:54:11;100148.00;;;17.10
19644;BMP180;9970;-36.854;174.870;2022-11-20T14:56:55;100147.00;;;17.10
19644;BMP180;9970;-36.854;174.870;2022-11-20T14:59:30;100147.00;;;17.10
19644;BMP180;9970;-36.854;174.870;2022-11-20T15:02:10;100141.00;;;17.10
19644;BMP180;9970;-36.854;174.870;2022-11-20T15:04:48;100140.00;;;17.10
19644;BMP180;9970;-36.854;174.870;2022-11-20T15:07:27;100144.00;;;17.10
19644;BMP180;9970;-36.854;174.870;2022-11-20T15:10:08;100140.00;;;17.10
19644;BMP180;9970;-36.854;174.870;2022-11-20T15:12:47;100145.00;;;17.10
19644;BMP180;9970;-36.854;174.870;2022-11-20T15:18:04;100147.00;;;17.10
19644;BMP180;9970;-36.854;174.870;2022-11-20T15:20:38;100147.00;;;17.10
19644;BMP180;9970;-36.854;174.870;2022-11-20T15:23:12;100150.00;;;17.10
19644;BMP180;9970;-36.854;174.870;2022-11-20T15:25:47;100139.00;;;17.10
19644;BMP180;9970;-36.854;174.870;2022-11-20T15:28:33;100135.00;;;17.10
19644;BMP180;9970;-36.854;174.870;2022-11-20T15:31:05;100133.00;;;17.10
19644;BMP180;9970;-36.854;174.870;2022-11-20T15:33:37;100130.00;;;17.10
19644;BMP180;9970;-36.854;174.870;2022-11-20T15:36:11;100137.00;;;17.10
19644;BMP180;9970;-36.854;174.870;2022-11-20T15:38:44;100139.00;;;17.10
19644;BMP180;9970;-36.854;174.870;2022-11-20T15:41:17;100127.00;;;17.10
19644;BMP180;9970;-36.854;174.870;2022-11-20T15:43:50;100125.00;;;17.10
19644;BMP180;9970;-36.854;174.870;2022-11-20T15:46:27;100122.00;;;17.10
19644;BMP180;9970;-36.854;174.870;2022-11-20T15:49:01;100129.00;;;17.10
19644;BMP180;9970;-36.854;174.870;2022-11-20T15:51:45;100132.00;;;17.10